sensor_id;sensor_type;location;lat;lon;timestamp;temperature;humidity
6270;DHT22;3168;51.684;6.954;2024-03-06T00:00:17;6.10;1.00
6270;DHT22;3168;51.684;6.954;2024-03-06T00:02:43;6.20;1.00
6270;DHT22;3168;51.684;6.954;2024-03-06T00:05:10;6.20;1.00
6270;DHT22;3168;51.684;6.954;2024-03-06T00:07:36;6.20;1.00
6270;DHT22;3168;51.684;6.954;2024-03-06T00:10:02;6.30;1.00
6270;DHT22;3168;51.684;6.954;2024-03-06T00:12:31;6.20;1.00
6270;DHT22;3168;51.684;6.954;2024-03-06T00:14:58;6.30;1.00
6270;DHT22;3168;51.684;6.954;2024-03-06T00:17:25;6.30;1.00
6270;DHT22;3168;51.684;6.954;2024-03-06T00:19:50;6.20;1.00
6270;DHT22;3168;51.684;6.954;2024-03-06T00:22:16;6.20;1.00
6270;DHT22;3168;51.684;6.954;2024-03-06T00:24:42;6.20;1.00
6270;DHT22;3168;51.684;6.954;2024-03-06T00:27:07;6.20;1.00
6270;DHT22;3168;51.684;6.954;2024-03-06T00:29:33;6.20;1.00
6270;DHT22;3168;51.684;6.954;2024-03-06T00:31:59;6.30;1.00
6270;DHT22;3168;51.684;6.954;2024-03-06T00:34:24;6.20;1.00
6270;DHT22;3168;51.684;6.954;2024-03-06T00:36:50;6.20;1.00
6270;DHT22;3168;51.684;6.954;2024-03-06T00:39:16;6.20;1.00
6270;DHT22;3168;51.684;6.954;2024-03-06T00:41:42;6.20;1.00
6270;DHT22;3168;51.684;6.954;2024-03-06T00:44:07;6.20;1.00
6270;DHT22;3168;51.684;6.954;2024-03-06T00:46:33;6.20;1.00
6270;DHT22;3168;51.684;6.954;2024-03-06T00:48:59;6.20;1.00
6270;DHT22;3168;51.684;6.954;2024-03-06T00:51:25;6.10;1.00
6270;DHT22;3168;51.684;6.954;2024-03-06T00:53:50;6.10;1.00
6270;DHT22;3168;51.684;6.954;2024-03-06T00:56:16;6.10;1.00
6270;DHT22;3168;51.684;6.954;2024-03-06T00:58:42;6.10;1.00
6270;DHT22;3168;51.684;6.954;2024-03-06T01:01:07;6.10;1.00
6270;DHT22;3168;51.684;6.954;2024-03-06T01:03:34;6.20;1.00
6270;DHT22;3168;51.684;6.954;2024-03-06T01:06:00;6.10;1.00
6270;DHT22;3168;51.684;6.954;2024-03-06T01:08:25;6.20;1.00
6270;DHT22;3168;51.684;6.954;2024-03-06T01:10:51;6.20;1.00
6270;DHT22;3168;51.684;6.954;2024-03-06T01:13:17;6.30;1.00
6270;DHT22;3168;51.684;6.954;2024-03-06T01:15:43;6.30;1.00
6270;DHT22;3168;51.684;6.954;2024-03-06T01:18:08;6.30;1.00
6270;DHT22;3168;51.684;6.954;2024-03-06T01:20:34;6.30;1.00
6270;DHT22;3168;51.684;6.954;2024-03-06T01:23:00;6.30;1.00
6270;DHT22;3168;51.684;6.954;2024-03-06T01:25:26;6.30;1.00
6270;DHT22;3168;51.684;6.954;2024-03-06T01:27:51;6.30;1.00
6270;DHT22;3168;51.684;6.954;2024-03-06T01:30:17;6.30;1.00
6270;DHT22;3168;51.684;6.954;2024-03-06T01:32:43;6.20;1.00
6270;DHT22;3168;51.684;6.954;2024-03-06T01:35:09;6.20;1.00
6270;DHT22;3168;51.684;6.954;2024-03-06T01:37:34;6.20;1.00
6270;DHT22;3168;51.684;6.954;2024-03-06T01:40:01;6.20;1.00
6270;DHT22;3168;51.684;6.954;2024-03-06T01:42:31;6.20;1.00
6270;DHT22;3168;51.684;6.954;2024-03-06T01:44:57;6.20;1.00
6270;DHT22;3168;51.684;6.954;2024-03-06T01:47:23;6.20;1.00
6270;DHT22;3168;51.684;6.954;2024-03-06T01:49:49;6.20;1.00
6270;DHT22;3168;51.684;6.954;2024-03-06T01:52:15;6.10;1.00
6270;DHT22;3168;51.684;6.954;2024-03-06T01:54:41;6.10;1.00
6270;DHT22;3168;51.684;6.954;2024-03-06T01:57:07;6.10;1.00
6270;DHT22;3168;51.684;6.954;2024-03-06T01:59:32;6.10;1.00
6270;DHT22;3168;51.684;6.954;2024-03-06T02:01:58;6.10;1.00
6270;DHT22;3168;51.684;6.954;2024-03-06T02:04:24;6.10;1.00
6270;DHT22;3168;51.684;6.954;2024-03-06T02:06:51;6.10;1.00
6270;DHT22;3168;51.684;6.954;2024-03-06T02:09:17;6.00;1.00
6270;DHT22;3168;51.684;6.954;2024-03-06T02:11:42;6.10;1.00
6270;DHT22;3168;51.684;6.954;2024-03-06T02:14:08;6.00;1.00
6270;DHT22;3168;51.684;6.954;2024-03-06T02:16:34;5.90;1.00
6270;DHT22;3168;51.684;6.954;2024-03-06T02:19:00;5.90;1.00
6270;DHT22;3168;51.684;6.954;2024-03-06T02:21:26;5.80;1.00
6270;DHT22;3168;51.684;6.954;2024-03-06T02:23:52;5.70;1.00
6270;DHT22;3168;51.684;6.954;2024-03-06T02:26:18;5.60;1.00
6270;DHT22;3168;51.684;6.954;2024-03-06T02:28:47;5.50;1.00
6270;DHT22;3168;51.684;6.954;2024-03-06T02:31:13;5.50;1.00
6270;DHT22;3168;51.684;6.954;2024-03-06T02:33:39;5.40;1.00
6270;DHT22;3168;51.684;6.954;2024-03-06T02:36:05;5.30;1.00
6270;DHT22;3168;51.684;6.954;2024-03-06T02:38:31;5.30;1.00
6270;DHT22;3168;51.684;6.954;2024-03-06T02:40:57;5.20;1.00
6270;DHT22;3168;51.684;6.954;2024-03-06T02:43:23;5.20;1.00
6270;DHT22;3168;51.684;6.954;2024-03-06T02:45:49;5.10;1.00
6270;DHT22;3168;51.684;6.954;2024-03-06T02:48:15;5.10;1.00
6270;DHT22;3168;51.684;6.954;2024-03-06T02:50:41;5.00;1.00
6270;DHT22;3168;51.684;6.954;2024-03-06T02:53:07;5.00;1.00
6270;DHT22;3168;51.684;6.954;2024-03-06T02:55:33;4.90;1.00
6270;DHT22;3168;51.684;6.954;2024-03-06T02:58:02;4.80;1.00
6270;DHT22;3168;51.684;6.954;2024-03-06T03:00:28;4.80;1.00
6270;DHT22;3168;51.684;6.954;2024-03-06T03:02:53;4.70;1.00
6270;DHT22;3168;51.684;6.954;2024-03-06T03:05:19;4.60;1.00
6270;DHT22;3168;51.684;6.954;2024-03-06T03:07:45;4.50;1.00
6270;DHT22;3168;51.684;6.954;2024-03-06T03:10:11;4.50;1.00
6270;DHT22;3168;51.684;6.954;2024-03-06T03:12:38;4.40;1.00
6270;DHT22;3168;51.684;6.954;2024-03-06T03:15:03;4.40;1.00
6270;DHT22;3168;51.684;6.954;2024-03-06T03:17:29;4.40;1.00
6270;DHT22;3168;51.684;6.954;2024-03-06T03:19:55;4.40;1.00
6270;DHT22;3168;51.684;6.954;2024-03-06T03:22:21;4.40;1.00
6270;DHT22;3168;51.684;6.954;2024-03-06T03:24:48;4.20;1.00
6270;DHT22;3168;51.684;6.954;2024-03-06T03:27:13;4.20;1.00
6270;DHT22;3168;51.684;6.954;2024-03-06T03:29:39;4.10;1.00
6270;DHT22;3168;51.684;6.954;2024-03-06T03:32:05;4.20;1.00
6270;DHT22;3168;51.684;6.954;2024-03-06T03:34:31;4.20;1.00
6270;DHT22;3168;51.684;6.954;2024-03-06T03:36:57;4.10;1.00
6270;DHT22;3168;51.684;6.954;2024-03-06T03:39:23;4.00;1.00
6270;DHT22;3168;51.684;6.954;2024-03-06T03:41:49;3.90;1.00
6270;DHT22;3168;51.684;6.954;2024-03-06T03:44:15;3.90;1.00
6270;DHT22;3168;51.684;6.954;2024-03-06T03:46:40;3.80;1.00
6270;DHT22;3168;51.684;6.954;2024-03-06T03:49:06;3.70;1.00
6270;DHT22;3168;51.684;6.954;2024-03-06T03:51:32;3.70;1.00
6270;DHT22;3168;51.684;6.954;2024-03-06T03:53:58;3.70;1.00
6270;DHT22;3168;51.684;6.954;2024-03-06T03:56:24;3.60;1.00
6270;DHT22;3168;51.684;6.954;2024-03-06T03:58:49;3.70;1.00
6270;DHT22;3168;51.684;6.954;2024-03-06T04:01:16;3.60;1.00
6270;DHT22;3168;51.684;6.954;2024-03-06T04:03:43;3.50;1.00
6270;DHT22;3168;51.684;6.954;2024-03-06T04:06:08;3.50;1.00
6270;DHT22;3168;51.684;6.954;2024-03-06T04:08:34;3.50;1.00
6270;DHT22;3168;51.684;6.954;2024-03-06T04:11:00;3.50;1.00
6270;DHT22;3168;51.684;6.954;2024-03-06T04:13:26;3.40;1.00
6270;DHT22;3168;51.684;6.954;2024-03-06T04:15:52;3.30;1.00
6270;DHT22;3168;51.684;6.954;2024-03-06T04:18:18;3.40;1.00
6270;DHT22;3168;51.684;6.954;2024-03-06T04:20:44;3.50;1.00
6270;DHT22;3168;51.684;6.954;2024-03-06T04:23:10;3.40;1.00
6270;DHT22;3168;51.684;6.954;2024-03-06T04:25:36;3.40;1.00
6270;DHT22;3168;51.684;6.954;2024-03-06T04:28:02;3.40;1.00
6270;DHT22;3168;51.684;6.954;2024-03-06T04:30:27;3.30;1.00
6270;DHT22;3168;51.684;6.954;2024-03-06T04:32:53;3.40;1.00
6270;DHT22;3168;51.684;6.954;2024-03-06T04:35:19;3.30;1.00
6270;DHT22;3168;51.684;6.954;2024-03-06T04:37:46;3.30;1.00
6270;DHT22;3168;51.684;6.954;2024-03-06T04:40:12;3.30;1.00
6270;DHT22;3168;51.684;6.954;2024-03-06T04:42:38;3.20;1.00
6270;DHT22;3168;51.684;6.954;2024-03-06T04:45:10;3.20;1.00
6270;DHT22;3168;51.684;6.954;2024-03-06T04:47:30;3.20;1.00
6270;DHT22;3168;51.684;6.954;2024-03-06T04:49:56;3.10;1.00
6270;DHT22;3168;51.684;6.954;2024-03-06T04:52:22;3.10;1.00
6270;DHT22;3168;51.684;6.954;2024-03-06T04:54:49;3.10;1.00
6270;DHT22;3168;51.684;6.954;2024-03-06T04:57:15;3.00;1.00
6270;DHT22;3168;51.684;6.954;2024-03-06T04:59:42;3.10;1.00
6270;DHT22;3168;51.684;6.954;2024-03-06T05:02:08;3.10;1.00
6270;DHT22;3168;51.684;6.954;2024-03-06T05:04:34;3.10;1.00
6270;DHT22;3168;51.684;6.954;2024-03-06T05:07:00;3.10;1.00
6270;DHT22;3168;51.684;6.954;2024-03-06T05:09:26;3.00;1.00
6270;DHT22;3168;51.684;6.954;2024-03-06T05:11:51;3.10;1.00
6270;DHT22;3168;51.684;6.954;2024-03-06T05:14:17;3.00;1.00
6270;DHT22;3168;51.684;6.954;2024-03-06T05:16:43;3.10;1.00
6270;DHT22;3168;51.684;6.954;2024-03-06T05:19:09;3.20;1.00
6270;DHT22;3168;51.684;6.954;2024-03-06T05:21:35;3.20;1.00
6270;DHT22;3168;51.684;6.954;2024-03-06T05:24:01;3.30;1.00
6270;DHT22;3168;51.684;6.954;2024-03-06T05:26:27;3.40;1.00
6270;DHT22;3168;51.684;6.954;2024-03-06T05:28:53;3.40;1.00
6270;DHT22;3168;51.684;6.954;2024-03-06T05:31:19;3.40;1.00
6270;DHT22;3168;51.684;6.954;2024-03-06T05:33:46;3.50;1.00
6270;DHT22;3168;51.684;6.954;2024-03-06T05:36:11;3.40;1.00
6270;DHT22;3168;51.684;6.954;2024-03-06T05:38:37;3.40;1.00
6270;DHT22;3168;51.684;6.954;2024-03-06T05:41:03;3.40;1.00
6270;DHT22;3168;51.684;6.954;2024-03-06T05:43:29;3.40;1.00
6270;DHT22;3168;51.684;6.954;2024-03-06T05:45:56;3.10;1.00
6270;DHT22;3168;51.684;6.954;2024-03-06T05:48:22;3.10;1.00
6270;DHT22;3168;51.684;6.954;2024-03-06T05:50:47;3.00;1.00
6270;DHT22;3168;51.684;6.954;2024-03-06T05:53:13;3.00;1.00
6270;DHT22;3168;51.684;6.954;2024-03-06T05:55:40;3.00;1.00
6270;DHT22;3168;51.684;6.954;2024-03-06T05:58:06;2.90;1.00
6270;DHT22;3168;51.684;6.954;2024-03-06T06:00:32;3.00;1.00
6270;DHT22;3168;51.684;6.954;2024-03-06T06:02:57;3.10;1.00
6270;DHT22;3168;51.684;6.954;2024-03-06T06:05:23;3.10;1.00
6270;DHT22;3168;51.684;6.954;2024-03-06T06:07:50;3.00;1.00
6270;DHT22;3168;51.684;6.954;2024-03-06T06:10:16;3.10;1.00
6270;DHT22;3168;51.684;6.954;2024-03-06T06:12:42;3.00;1.00
6270;DHT22;3168;51.684;6.954;2024-03-06T06:15:09;3.10;1.00
6270;DHT22;3168;51.684;6.954;2024-03-06T06:17:35;3.00;1.00
6270;DHT22;3168;51.684;6.954;2024-03-06T06:20:00;3.00;1.00
6270;DHT22;3168;51.684;6.954;2024-03-06T06:22:27;3.00;1.00
6270;DHT22;3168;51.684;6.954;2024-03-06T06:24:53;3.10;1.00
6270;DHT22;3168;51.684;6.954;2024-03-06T06:27:19;3.00;1.00
6270;DHT22;3168;51.684;6.954;2024-03-06T06:29:45;3.10;1.00
6270;DHT22;3168;51.684;6.954;2024-03-06T06:32:11;3.00;1.00
6270;DHT22;3168;51.684;6.954;2024-03-06T06:34:37;2.80;1.00
6270;DHT22;3168;51.684;6.954;2024-03-06T06:37:03;2.80;1.00
6270;DHT22;3168;51.684;6.954;2024-03-06T06:39:28;2.90;1.00
6270;DHT22;3168;51.684;6.954;2024-03-06T06:41:54;3.00;1.00
6270;DHT22;3168;51.684;6.954;2024-03-06T06:44:20;3.00;1.00
6270;DHT22;3168;51.684;6.954;2024-03-06T06:46:46;3.20;1.00
6270;DHT22;3168;51.684;6.954;2024-03-06T06:49:12;3.10;1.00
6270;DHT22;3168;51.684;6.954;2024-03-06T06:51:39;3.20;1.00
6270;DHT22;3168;51.684;6.954;2024-03-06T06:54:04;3.30;1.00
6270;DHT22;3168;51.684;6.954;2024-03-06T06:56:30;3.40;1.00
6270;DHT22;3168;51.684;6.954;2024-03-06T06:58:56;3.40;1.00
6270;DHT22;3168;51.684;6.954;2024-03-06T07:01:22;3.40;1.00
6270;DHT22;3168;51.684;6.954;2024-03-06T07:03:49;3.50;1.00
6270;DHT22;3168;51.684;6.954;2024-03-06T07:06:14;3.50;1.00
6270;DHT22;3168;51.684;6.954;2024-03-06T07:08:40;3.60;1.00
6270;DHT22;3168;51.684;6.954;2024-03-06T07:11:06;3.60;1.00
6270;DHT22;3168;51.684;6.954;2024-03-06T07:13:33;3.60;1.00
6270;DHT22;3168;51.684;6.954;2024-03-06T07:15:59;3.60;1.00
6270;DHT22;3168;51.684;6.954;2024-03-06T07:18:25;3.70;1.00
6270;DHT22;3168;51.684;6.954;2024-03-06T07:20:51;3.70;1.00
6270;DHT22;3168;51.684;6.954;2024-03-06T07:23:17;3.70;1.00
6270;DHT22;3168;51.684;6.954;2024-03-06T07:25:43;3.70;1.00
6270;DHT22;3168;51.684;6.954;2024-03-06T07:28:08;3.80;1.00
6270;DHT22;3168;51.684;6.954;2024-03-06T07:30:34;3.80;1.00
6270;DHT22;3168;51.684;6.954;2024-03-06T07:33:00;3.90;1.00
6270;DHT22;3168;51.684;6.954;2024-03-06T07:35:26;3.90;1.00
6270;DHT22;3168;51.684;6.954;2024-03-06T07:37:52;3.90;1.00
6270;DHT22;3168;51.684;6.954;2024-03-06T07:40:18;3.90;1.00
6270;DHT22;3168;51.684;6.954;2024-03-06T07:42:44;4.00;1.00
6270;DHT22;3168;51.684;6.954;2024-03-06T07:45:11;4.00;1.00
6270;DHT22;3168;51.684;6.954;2024-03-06T07:47:37;3.90;1.00
6270;DHT22;3168;51.684;6.954;2024-03-06T07:50:04;4.00;1.00
6270;DHT22;3168;51.684;6.954;2024-03-06T07:52:29;4.10;1.00
6270;DHT22;3168;51.684;6.954;2024-03-06T07:54:55;4.20;1.00
6270;DHT22;3168;51.684;6.954;2024-03-06T07:57:22;4.20;1.00
6270;DHT22;3168;51.684;6.954;2024-03-06T07:59:47;4.20;1.00
6270;DHT22;3168;51.684;6.954;2024-03-06T08:02:13;4.20;1.00
6270;DHT22;3168;51.684;6.954;2024-03-06T08:04:39;4.20;1.00
6270;DHT22;3168;51.684;6.954;2024-03-06T08:07:05;4.20;1.00
6270;DHT22;3168;51.684;6.954;2024-03-06T08:09:31;4.20;1.00
6270;DHT22;3168;51.684;6.954;2024-03-06T08:11:57;4.10;1.00
6270;DHT22;3168;51.684;6.954;2024-03-06T08:14:23;4.40;1.00
6270;DHT22;3168;51.684;6.954;2024-03-06T08:16:49;4.60;1.00
6270;DHT22;3168;51.684;6.954;2024-03-06T08:19:15;4.70;1.00
6270;DHT22;3168;51.684;6.954;2024-03-06T08:21:41;4.70;1.00
6270;DHT22;3168;51.684;6.954;2024-03-06T08:24:07;4.80;1.00
6270;DHT22;3168;51.684;6.954;2024-03-06T08:26:33;4.90;1.00
6270;DHT22;3168;51.684;6.954;2024-03-06T08:28:59;5.10;1.00
6270;DHT22;3168;51.684;6.954;2024-03-06T08:31:25;5.10;1.00
6270;DHT22;3168;51.684;6.954;2024-03-06T08:33:50;5.20;1.00
6270;DHT22;3168;51.684;6.954;2024-03-06T08:36:17;5.00;1.00
6270;DHT22;3168;51.684;6.954;2024-03-06T08:38:43;5.20;1.00
6270;DHT22;3168;51.684;6.954;2024-03-06T08:41:09;5.10;1.00
6270;DHT22;3168;51.684;6.954;2024-03-06T08:43:36;5.30;1.00
6270;DHT22;3168;51.684;6.954;2024-03-06T08:46:03;5.30;1.00
6270;DHT22;3168;51.684;6.954;2024-03-06T08:48:29;5.50;1.00
6270;DHT22;3168;51.684;6.954;2024-03-06T08:50:55;5.50;1.00
6270;DHT22;3168;51.684;6.954;2024-03-06T08:53:20;5.70;1.00
6270;DHT22;3168;51.684;6.954;2024-03-06T08:55:47;6.00;1.00
6270;DHT22;3168;51.684;6.954;2024-03-06T08:58:13;6.00;1.00
6270;DHT22;3168;51.684;6.954;2024-03-06T09:00:39;5.90;1.00
6270;DHT22;3168;51.684;6.954;2024-03-06T09:03:05;6.20;1.00
6270;DHT22;3168;51.684;6.954;2024-03-06T09:05:31;6.30;1.00
6270;DHT22;3168;51.684;6.954;2024-03-06T09:07:57;6.30;1.00
6270;DHT22;3168;51.684;6.954;2024-03-06T09:10:22;6.50;1.00
6270;DHT22;3168;51.684;6.954;2024-03-06T09:12:48;6.40;1.00
6270;DHT22;3168;51.684;6.954;2024-03-06T09:15:16;6.80;1.00
6270;DHT22;3168;51.684;6.954;2024-03-06T09:17:42;6.80;1.00
6270;DHT22;3168;51.684;6.954;2024-03-06T09:20:08;6.90;1.00
6270;DHT22;3168;51.684;6.954;2024-03-06T09:22:38;6.90;1.00
6270;DHT22;3168;51.684;6.954;2024-03-06T09:25:05;6.90;1.00
6270;DHT22;3168;51.684;6.954;2024-03-06T09:27:32;6.90;1.00
6270;DHT22;3168;51.684;6.954;2024-03-06T09:29:58;6.90;1.00
6270;DHT22;3168;51.684;6.954;2024-03-06T09:32:24;6.90;1.00
6270;DHT22;3168;51.684;6.954;2024-03-06T09:34:49;7.00;99.90
6270;DHT22;3168;51.684;6.954;2024-03-06T09:37:16;7.10;99.90
6270;DHT22;3168;51.684;6.954;2024-03-06T09:39:42;7.30;99.90
6270;DHT22;3168;51.684;6.954;2024-03-06T09:42:08;7.30;99.90
6270;DHT22;3168;51.684;6.954;2024-03-06T09:44:34;7.30;99.90
6270;DHT22;3168;51.684;6.954;2024-03-06T09:47:02;7.40;99.90
6270;DHT22;3168;51.684;6.954;2024-03-06T09:49:26;7.10;99.90
6270;DHT22;3168;51.684;6.954;2024-03-06T09:51:52;7.10;99.90
6270;DHT22;3168;51.684;6.954;2024-03-06T09:54:18;7.00;99.90
6270;DHT22;3168;51.684;6.954;2024-03-06T09:56:44;7.30;99.90
6270;DHT22;3168;51.684;6.954;2024-03-06T09:59:10;7.50;99.90
6270;DHT22;3168;51.684;6.954;2024-03-06T10:01:40;7.60;99.90
6270;DHT22;3168;51.684;6.954;2024-03-06T10:06:44;7.70;99.90
6270;DHT22;3168;51.684;6.954;2024-03-06T10:09:10;7.80;99.90
6270;DHT22;3168;51.684;6.954;2024-03-06T10:11:40;8.00;99.90
6270;DHT22;3168;51.684;6.954;2024-03-06T10:14:07;8.20;99.90
6270;DHT22;3168;51.684;6.954;2024-03-06T10:16:33;8.10;99.90
6270;DHT22;3168;51.684;6.954;2024-03-06T10:19:13;8.20;99.90
6270;DHT22;3168;51.684;6.954;2024-03-06T10:21:29;8.30;99.90
6270;DHT22;3168;51.684;6.954;2024-03-06T10:23:57;8.40;99.90
6270;DHT22;3168;51.684;6.954;2024-03-06T10:26:21;8.40;99.90
6270;DHT22;3168;51.684;6.954;2024-03-06T10:28:47;8.40;99.90
6270;DHT22;3168;51.684;6.954;2024-03-06T10:31:13;8.40;99.90
6270;DHT22;3168;51.684;6.954;2024-03-06T10:33:42;8.40;99.90
6270;DHT22;3168;51.684;6.954;2024-03-06T10:36:09;8.40;99.90
6270;DHT22;3168;51.684;6.954;2024-03-06T10:38:32;8.40;99.90
6270;DHT22;3168;51.684;6.954;2024-03-06T10:40:57;8.60;99.90
6270;DHT22;3168;51.684;6.954;2024-03-06T10:43:24;8.50;99.90
6270;DHT22;3168;51.684;6.954;2024-03-06T10:45:51;8.40;99.90
6270;DHT22;3168;51.684;6.954;2024-03-06T10:48:18;8.40;99.90
6270;DHT22;3168;51.684;6.954;2024-03-06T10:50:44;8.40;99.90
6270;DHT22;3168;51.684;6.954;2024-03-06T10:53:12;8.50;99.90
6270;DHT22;3168;51.684;6.954;2024-03-06T10:55:37;8.50;99.90
6270;DHT22;3168;51.684;6.954;2024-03-06T10:58:05;8.50;99.90
6270;DHT22;3168;51.684;6.954;2024-03-06T11:00:30;8.40;99.90
6270;DHT22;3168;51.684;6.954;2024-03-06T11:02:56;8.30;99.90
6270;DHT22;3168;51.684;6.954;2024-03-06T11:05:22;8.20;99.90
6270;DHT22;3168;51.684;6.954;2024-03-06T11:07:48;8.40;99.90
6270;DHT22;3168;51.684;6.954;2024-03-06T11:10:28;8.60;99.90
6270;DHT22;3168;51.684;6.954;2024-03-06T11:12:41;8.70;99.90
6270;DHT22;3168;51.684;6.954;2024-03-06T11:15:13;8.80;99.90
6270;DHT22;3168;51.684;6.954;2024-03-06T11:17:36;8.80;99.90
6270;DHT22;3168;51.684;6.954;2024-03-06T11:20:18;8.90;99.90
6270;DHT22;3168;51.684;6.954;2024-03-06T11:23:03;8.90;99.90
6270;DHT22;3168;51.684;6.954;2024-03-06T11:28:07;8.90;99.90
6270;DHT22;3168;51.684;6.954;2024-03-06T11:30:33;9.10;99.90
6270;DHT22;3168;51.684;6.954;2024-03-06T11:33:00;9.10;99.90
6270;DHT22;3168;51.684;6.954;2024-03-06T11:35:27;8.90;99.90
6270;DHT22;3168;51.684;6.954;2024-03-06T11:37:53;9.10;99.90
6270;DHT22;3168;51.684;6.954;2024-03-06T11:40:23;9.20;99.90
6270;DHT22;3168;51.684;6.954;2024-03-06T11:42:48;9.20;98.90
6270;DHT22;3168;51.684;6.954;2024-03-06T11:45:16;9.40;97.00
6270;DHT22;3168;51.684;6.954;2024-03-06T11:50:20;9.60;87.80
6270;DHT22;3168;51.684;6.954;2024-03-06T11:52:46;9.70;61.30
6270;DHT22;3168;51.684;6.954;2024-03-06T11:55:11;10.10;61.90
6270;DHT22;3168;51.684;6.954;2024-03-06T11:57:38;10.30;60.70
6270;DHT22;3168;51.684;6.954;2024-03-06T12:00:04;10.60;61.00
6270;DHT22;3168;51.684;6.954;2024-03-06T12:02:30;10.80;32.50
6270;DHT22;3168;51.684;6.954;2024-03-06T12:04:56;11.00;6.30
6270;DHT22;3168;51.684;6.954;2024-03-06T12:07:22;11.10;1.00
6270;DHT22;3168;51.684;6.954;2024-03-06T12:09:48;11.10;1.00
6270;DHT22;3168;51.684;6.954;2024-03-06T12:12:14;11.10;1.00
6270;DHT22;3168;51.684;6.954;2024-03-06T12:14:40;10.90;1.00
6270;DHT22;3168;51.684;6.954;2024-03-06T12:17:06;10.90;1.00
6270;DHT22;3168;51.684;6.954;2024-03-06T12:19:32;11.10;1.00
6270;DHT22;3168;51.684;6.954;2024-03-06T12:22:00;11.30;1.00
6270;DHT22;3168;51.684;6.954;2024-03-06T12:24:25;11.10;1.00
6270;DHT22;3168;51.684;6.954;2024-03-06T12:26:59;11.20;1.00
6270;DHT22;3168;51.684;6.954;2024-03-06T12:29:23;11.20;1.00
6270;DHT22;3168;51.684;6.954;2024-03-06T12:31:49;11.10;1.00
6270;DHT22;3168;51.684;6.954;2024-03-06T12:34:15;11.10;1.00
6270;DHT22;3168;51.684;6.954;2024-03-06T12:36:41;11.20;1.00
6270;DHT22;3168;51.684;6.954;2024-03-06T12:39:07;11.00;1.00
6270;DHT22;3168;51.684;6.954;2024-03-06T12:41:34;11.20;1.00
6270;DHT22;3168;51.684;6.954;2024-03-06T12:44:00;11.10;1.00
6270;DHT22;3168;51.684;6.954;2024-03-06T12:46:27;11.20;1.00
6270;DHT22;3168;51.684;6.954;2024-03-06T12:48:58;11.50;1.00
6270;DHT22;3168;51.684;6.954;2024-03-06T12:51:26;11.70;1.00
6270;DHT22;3168;51.684;6.954;2024-03-06T12:53:54;12.10;1.00
6270;DHT22;3168;51.684;6.954;2024-03-06T12:56:21;12.20;1.00
6270;DHT22;3168;51.684;6.954;2024-03-06T12:58:47;12.40;1.00
6270;DHT22;3168;51.684;6.954;2024-03-06T13:01:14;12.60;1.00
6270;DHT22;3168;51.684;6.954;2024-03-06T13:03:41;12.60;1.00
6270;DHT22;3168;51.684;6.954;2024-03-06T13:06:11;12.30;1.00
6270;DHT22;3168;51.684;6.954;2024-03-06T13:08:51;12.40;1.00
6270;DHT22;3168;51.684;6.954;2024-03-06T13:11:21;12.50;1.00
6270;DHT22;3168;51.684;6.954;2024-03-06T13:13:50;12.60;1.00
6270;DHT22;3168;51.684;6.954;2024-03-06T13:16:20;12.50;1.00
6270;DHT22;3168;51.684;6.954;2024-03-06T13:18:53;12.20;1.00
6270;DHT22;3168;51.684;6.954;2024-03-06T13:21:24;11.60;1.00
6270;DHT22;3168;51.684;6.954;2024-03-06T13:23:55;11.60;1.00
6270;DHT22;3168;51.684;6.954;2024-03-06T13:26:30;11.40;1.00
6270;DHT22;3168;51.684;6.954;2024-03-06T13:29:03;11.40;1.00
6270;DHT22;3168;51.684;6.954;2024-03-06T13:31:35;11.00;1.00
6270;DHT22;3168;51.684;6.954;2024-03-06T13:34:04;10.90;1.00
6270;DHT22;3168;51.684;6.954;2024-03-06T13:36:33;11.20;1.00
6270;DHT22;3168;51.684;6.954;2024-03-06T13:39:03;11.00;1.00
6270;DHT22;3168;51.684;6.954;2024-03-06T13:41:31;11.00;1.00
6270;DHT22;3168;51.684;6.954;2024-03-06T13:43:59;11.00;1.00
6270;DHT22;3168;51.684;6.954;2024-03-06T13:46:30;11.00;1.00
6270;DHT22;3168;51.684;6.954;2024-03-06T13:49:00;10.90;1.00
6270;DHT22;3168;51.684;6.954;2024-03-06T13:51:30;10.80;1.00
6270;DHT22;3168;51.684;6.954;2024-03-06T13:53:57;10.90;1.00
6270;DHT22;3168;51.684;6.954;2024-03-06T13:56:29;10.80;1.00
6270;DHT22;3168;51.684;6.954;2024-03-06T13:58:56;10.80;1.00
6270;DHT22;3168;51.684;6.954;2024-03-06T14:01:26;10.70;1.00
6270;DHT22;3168;51.684;6.954;2024-03-06T14:04:05;10.70;1.00
6270;DHT22;3168;51.684;6.954;2024-03-06T14:06:31;10.70;1.00
6270;DHT22;3168;51.684;6.954;2024-03-06T14:08:58;10.70;1.00
6270;DHT22;3168;51.684;6.954;2024-03-06T14:11:27;10.70;1.00
6270;DHT22;3168;51.684;6.954;2024-03-06T14:13:54;10.60;1.00
6270;DHT22;3168;51.684;6.954;2024-03-06T14:16:21;10.70;1.00
6270;DHT22;3168;51.684;6.954;2024-03-06T14:18:49;10.90;1.00
6270;DHT22;3168;51.684;6.954;2024-03-06T14:21:15;10.90;1.00
6270;DHT22;3168;51.684;6.954;2024-03-06T14:23:41;11.00;1.00
6270;DHT22;3168;51.684;6.954;2024-03-06T14:26:06;10.90;1.00
6270;DHT22;3168;51.684;6.954;2024-03-06T14:28:32;11.00;1.00
6270;DHT22;3168;51.684;6.954;2024-03-06T14:30:58;10.90;1.00
6270;DHT22;3168;51.684;6.954;2024-03-06T14:33:25;10.80;1.00
6270;DHT22;3168;51.684;6.954;2024-03-06T14:35:52;10.80;1.00
6270;DHT22;3168;51.684;6.954;2024-03-06T14:38:18;11.00;1.00
6270;DHT22;3168;51.684;6.954;2024-03-06T14:40:45;11.00;1.00
6270;DHT22;3168;51.684;6.954;2024-03-06T14:43:10;11.00;1.00
6270;DHT22;3168;51.684;6.954;2024-03-06T14:45:36;11.10;1.00
6270;DHT22;3168;51.684;6.954;2024-03-06T14:48:02;11.30;1.00
6270;DHT22;3168;51.684;6.954;2024-03-06T14:50:29;11.40;1.00
6270;DHT22;3168;51.684;6.954;2024-03-06T14:52:55;11.40;1.00
6270;DHT22;3168;51.684;6.954;2024-03-06T14:55:21;11.50;1.00
6270;DHT22;3168;51.684;6.954;2024-03-06T14:57:47;11.60;1.00
6270;DHT22;3168;51.684;6.954;2024-03-06T15:00:14;11.60;1.00
6270;DHT22;3168;51.684;6.954;2024-03-06T15:02:40;11.60;1.00
6270;DHT22;3168;51.684;6.954;2024-03-06T15:05:06;11.70;1.00
6270;DHT22;3168;51.684;6.954;2024-03-06T15:07:32;11.80;1.00
6270;DHT22;3168;51.684;6.954;2024-03-06T15:09:58;12.30;1.00
6270;DHT22;3168;51.684;6.954;2024-03-06T15:12:24;12.30;1.00
6270;DHT22;3168;51.684;6.954;2024-03-06T15:14:49;12.70;1.00
6270;DHT22;3168;51.684;6.954;2024-03-06T15:17:16;12.90;1.00
6270;DHT22;3168;51.684;6.954;2024-03-06T15:19:42;12.90;1.00
6270;DHT22;3168;51.684;6.954;2024-03-06T15:22:08;13.00;1.00
6270;DHT22;3168;51.684;6.954;2024-03-06T15:24:33;13.20;1.00
6270;DHT22;3168;51.684;6.954;2024-03-06T15:26:59;13.30;1.00
6270;DHT22;3168;51.684;6.954;2024-03-06T15:29:25;13.00;1.00
6270;DHT22;3168;51.684;6.954;2024-03-06T15:31:51;13.30;1.00
6270;DHT22;3168;51.684;6.954;2024-03-06T15:34:17;13.60;1.00
6270;DHT22;3168;51.684;6.954;2024-03-06T15:36:43;13.70;1.00
6270;DHT22;3168;51.684;6.954;2024-03-06T15:39:09;13.10;1.00
6270;DHT22;3168;51.684;6.954;2024-03-06T15:41:35;13.10;1.00
6270;DHT22;3168;51.684;6.954;2024-03-06T15:44:01;12.90;1.00
6270;DHT22;3168;51.684;6.954;2024-03-06T15:46:27;12.60;1.00
6270;DHT22;3168;51.684;6.954;2024-03-06T15:48:53;12.30;1.00
6270;DHT22;3168;51.684;6.954;2024-03-06T15:51:19;12.00;1.00
6270;DHT22;3168;51.684;6.954;2024-03-06T15:53:45;11.70;1.00
6270;DHT22;3168;51.684;6.954;2024-03-06T15:56:10;11.50;1.00
6270;DHT22;3168;51.684;6.954;2024-03-06T15:58:37;11.60;1.00
6270;DHT22;3168;51.684;6.954;2024-03-06T16:01:03;11.50;1.00
6270;DHT22;3168;51.684;6.954;2024-03-06T16:03:29;11.60;1.00
6270;DHT22;3168;51.684;6.954;2024-03-06T16:05:55;11.80;1.00
6270;DHT22;3168;51.684;6.954;2024-03-06T16:08:21;11.50;1.00
6270;DHT22;3168;51.684;6.954;2024-03-06T16:10:47;11.40;1.00
6270;DHT22;3168;51.684;6.954;2024-03-06T16:13:13;11.20;1.00
6270;DHT22;3168;51.684;6.954;2024-03-06T16:15:39;11.00;1.00
6270;DHT22;3168;51.684;6.954;2024-03-06T16:18:05;10.90;1.00
6270;DHT22;3168;51.684;6.954;2024-03-06T16:20:32;10.70;1.00
6270;DHT22;3168;51.684;6.954;2024-03-06T16:22:58;10.60;1.00
6270;DHT22;3168;51.684;6.954;2024-03-06T16:25:24;10.50;1.00
6270;DHT22;3168;51.684;6.954;2024-03-06T16:27:50;10.60;1.00